createdAt,value
2018-12-04T00:00:11.383Z,2.87
2018-12-04T00:02:47.063Z,2.50
2018-12-04T00:05:21.912Z,2.00
2018-12-04T00:07:57.071Z,2.50
2018-12-04T00:10:31.916Z,2.40
2018-12-04T00:13:06.602Z,2.67
2018-12-04T00:15:41.413Z,2.43
2018-12-04T00:18:16.391Z,2.20
2018-12-04T00:20:51.127Z,1.87
2018-12-04T00:23:26.363Z,2.13
2018-12-04T00:26:04.460Z,2.07
2018-12-04T00:28:39.106Z,1.90
2018-12-04T00:31:14.108Z,1.90
2018-12-04T00:33:48.895Z,2.07
2018-12-04T00:36:23.700Z,2.17
2018-12-04T00:38:58.489Z,2.10
2018-12-04T00:41:33.331Z,1.97
2018-12-04T00:44:07.976Z,1.70
2018-12-04T00:46:42.974Z,2.50
2018-12-04T00:49:18.835Z,1.90
2018-12-04T00:51:53.534Z,2.30
2018-12-04T00:54:28.152Z,2.00
2018-12-04T00:57:02.860Z,2.00
2018-12-04T00:59:37.733Z,2.80
2018-12-04T01:02:12.443Z,2.57
2018-12-04T01:04:47.262Z,2.53
2018-12-04T01:07:22.435Z,2.47
2018-12-04T01:09:57.140Z,2.87
2018-12-04T01:12:32.039Z,3.03
2018-12-04T01:15:08.091Z,2.43
2018-12-04T01:17:43.500Z,2.60
2018-12-04T01:20:18.572Z,2.43
2018-12-04T01:22:53.460Z,2.30
2018-12-04T01:25:28.288Z,2.57
2018-12-04T01:28:02.874Z,2.90
2018-12-04T01:30:37.713Z,2.77
2018-12-04T01:33:12.572Z,2.90
2018-12-04T01:35:47.467Z,2.20
2018-12-04T01:38:22.170Z,2.40
2018-12-04T01:40:56.960Z,2.77
2018-12-04T01:43:31.807Z,2.47
2018-12-04T01:46:06.588Z,2.60
2018-12-04T01:48:41.377Z,2.47
2018-12-04T01:51:16.579Z,2.63
2018-12-04T01:53:51.384Z,2.23
2018-12-04T01:56:26.198Z,2.50
2018-12-04T01:59:01.119Z,3.20
2018-12-04T02:01:35.867Z,2.50
2018-12-04T02:04:10.713Z,2.57
2018-12-04T02:06:45.467Z,2.43
2018-12-04T02:09:20.108Z,2.57
2018-12-04T02:11:55.080Z,3.30
2018-12-04T02:14:29.813Z,2.17
2018-12-04T02:17:04.644Z,2.33
2018-12-04T02:19:33.859Z,2.30
2018-12-04T02:22:08.709Z,2.53
2018-12-04T02:24:43.536Z,2.30
2018-12-04T02:27:18.326Z,2.50
2018-12-04T02:29:53.356Z,2.73
2018-12-04T02:32:27.982Z,2.80
2018-12-04T02:35:02.813Z,2.50
2018-12-04T02:37:37.649Z,2.77
2018-12-04T02:40:13.525Z,2.67
2018-12-04T02:42:48.174Z,2.57
2018-12-04T02:45:23.174Z,3.20
2018-12-04T02:47:58.356Z,2.63
2018-12-04T02:50:33.009Z,2.77
2018-12-04T02:53:07.791Z,2.63
2018-12-04T02:55:42.436Z,2.70
2018-12-04T02:58:16.987Z,2.70
2018-12-04T03:00:51.740Z,2.70
2018-12-04T03:03:26.935Z,3.00
2018-12-04T03:06:02.144Z,3.00
2018-12-04T03:08:37.264Z,2.80
2018-12-04T03:11:12.229Z,3.47
2018-12-04T03:13:47.119Z,2.97
2018-12-04T03:16:21.807Z,3.10
2018-12-04T03:18:56.541Z,2.50
2018-12-04T03:21:31.248Z,3.03
2018-12-04T03:24:06.088Z,3.43
2018-12-04T03:26:40.992Z,2.73
2018-12-04T03:29:15.843Z,3.57
2018-12-04T03:31:50.869Z,3.03
2018-12-04T03:34:25.848Z,3.53
2018-12-04T03:37:00.825Z,3.40
2018-12-04T03:39:36.092Z,3.17
2018-12-04T03:42:11.219Z,3.00
2018-12-04T03:44:46.171Z,3.40
2018-12-04T03:47:21.008Z,3.23
2018-12-04T03:49:55.806Z,3.40
2018-12-04T03:52:30.562Z,3.70
2018-12-04T03:55:06.412Z,3.53
2018-12-04T03:57:42.060Z,3.70
2018-12-04T04:00:16.942Z,3.43
2018-12-04T04:02:51.780Z,3.20
2018-12-04T04:05:26.484Z,3.10
2018-12-04T04:08:01.383Z,3.53
2018-12-04T04:10:36.103Z,3.10
2018-12-04T04:13:10.717Z,3.40
2018-12-04T04:15:45.662Z,3.57
2018-12-04T04:18:20.629Z,3.63
2018-12-04T04:20:55.600Z,3.60
2018-12-04T04:23:30.665Z,3.53
2018-12-04T04:26:07.031Z,3.30
2018-12-04T04:28:41.805Z,3.77
2018-12-04T04:31:16.938Z,3.20
2018-12-04T04:33:52.029Z,3.23
2018-12-04T04:36:26.964Z,3.80
2018-12-04T04:39:01.990Z,3.97
2018-12-04T04:41:37.125Z,3.60
2018-12-04T04:44:11.918Z,3.10
2018-12-04T04:46:46.601Z,3.00
2018-12-04T04:49:21.546Z,3.27
2018-12-04T04:51:56.301Z,3.30
2018-12-04T04:54:31.060Z,3.43
2018-12-04T04:57:05.999Z,3.33
2018-12-04T04:59:40.808Z,2.90
2018-12-04T05:02:15.709Z,3.40
2018-12-04T05:04:50.478Z,3.60
2018-12-04T05:07:25.280Z,3.40
2018-12-04T05:10:00.346Z,3.30
2018-12-04T05:12:35.987Z,2.90
2018-12-04T05:15:11.043Z,3.47
2018-12-04T05:17:45.728Z,3.17
2018-12-04T05:20:20.426Z,2.90
2018-12-04T05:22:55.379Z,3.17
2018-12-04T05:25:30.310Z,3.80
2018-12-04T05:28:05.868Z,3.30
2018-12-04T05:30:40.513Z,3.03
2018-12-04T05:33:15.479Z,2.87
2018-12-04T05:35:50.383Z,2.97
2018-12-04T05:38:25.199Z,3.40
2018-12-04T05:40:59.831Z,4.07
2018-12-04T05:43:34.979Z,2.90
2018-12-04T05:46:09.658Z,3.57
2018-12-04T05:48:44.952Z,3.20
2018-12-04T05:51:19.701Z,3.40
2018-12-04T05:53:54.596Z,3.57
2018-12-04T05:56:29.269Z,2.90
2018-12-04T05:59:04.543Z,3.80
2018-12-04T06:01:39.255Z,3.27
2018-12-04T06:04:14.458Z,3.03
2018-12-04T06:06:49.333Z,3.40
2018-12-04T06:09:24.014Z,2.90
2018-12-04T06:11:58.812Z,2.80
2018-12-04T06:14:35.120Z,3.67
2018-12-04T06:17:09.805Z,4.23
2018-12-04T06:19:45.062Z,4.00
2018-12-04T06:22:19.930Z,3.90
2018-12-04T06:24:54.839Z,4.53
2018-12-04T06:27:29.800Z,4.57
2018-12-04T06:30:05.727Z,4.90
2018-12-04T06:32:40.392Z,5.97
2018-12-04T06:35:15.368Z,6.20
2018-12-04T06:37:50.282Z,6.27
2018-12-04T06:40:24.959Z,5.73
2018-12-04T06:43:00.455Z,6.50
2018-12-04T06:45:35.555Z,6.70
2018-12-04T06:48:10.184Z,6.03
2018-12-04T06:50:45.104Z,6.20
2018-12-04T06:53:20.476Z,6.27
2018-12-04T06:55:55.273Z,6.27
2018-12-04T06:58:30.215Z,6.27
2018-12-04T07:01:05.036Z,6.03
2018-12-04T07:03:39.757Z,6.03
2018-12-04T07:06:14.631Z,6.47
2018-12-04T07:08:49.567Z,5.60
2018-12-04T07:11:24.260Z,5.37
2018-12-04T07:13:59.296Z,5.47
2018-12-04T07:16:34.224Z,5.83
2018-12-04T07:19:09.003Z,5.40
2018-12-04T07:21:43.827Z,4.83
2018-12-04T07:24:19.612Z,6.50
2018-12-04T07:26:54.392Z,5.20
2018-12-04T07:29:29.392Z,4.63
2018-12-04T07:32:04.542Z,5.13
2018-12-04T07:34:39.722Z,4.57
2018-12-04T07:37:14.436Z,4.30
2018-12-04T07:39:49.540Z,4.17
2018-12-04T07:42:24.456Z,4.43
2018-12-04T07:44:59.432Z,4.30
2018-12-04T07:47:34.465Z,5.17
2018-12-04T07:50:09.199Z,4.90
2018-12-04T07:52:44.212Z,4.17
2018-12-04T07:55:19.292Z,4.80
2018-12-04T07:57:54.107Z,4.57
2018-12-04T08:00:28.945Z,4.37
2018-12-04T08:03:03.925Z,4.00
2018-12-04T08:05:38.863Z,4.30
2018-12-04T08:08:13.629Z,3.67
2018-12-04T08:10:48.533Z,3.50
2018-12-04T08:13:23.292Z,3.43
2018-12-04T08:15:58.168Z,3.83
2018-12-04T08:18:33.014Z,3.90
2018-12-04T08:21:07.670Z,3.47
2018-12-04T08:23:48.763Z,3.90
2018-12-04T08:26:23.821Z,3.40
2018-12-04T08:28:58.595Z,3.17
2018-12-04T08:31:33.378Z,3.17
2018-12-04T08:34:08.271Z,3.53
2018-12-04T08:36:43.135Z,2.90
2018-12-04T08:39:17.976Z,3.00
2018-12-04T08:41:52.940Z,3.63
2018-12-04T08:44:27.799Z,3.50
2018-12-04T08:47:02.512Z,3.43
2018-12-04T08:49:37.343Z,3.30
2018-12-04T08:52:12.251Z,3.43
2018-12-04T08:54:47.038Z,3.30
2018-12-04T08:57:21.998Z,3.03
2018-12-04T08:59:56.637Z,3.47
2018-12-04T09:02:31.649Z,3.07
2018-12-04T09:05:07.481Z,3.00
2018-12-04T09:07:42.474Z,2.90
2018-12-04T09:10:17.231Z,3.10
2018-12-04T09:12:51.902Z,3.10
2018-12-04T09:15:26.668Z,3.13
2018-12-04T09:18:01.689Z,3.23
2018-12-04T09:20:36.483Z,2.97
2018-12-04T09:23:11.659Z,4.00
2018-12-04T09:25:46.926Z,3.60
2018-12-04T09:28:22.413Z,3.33
2018-12-04T09:30:57.105Z,3.37
2018-12-04T09:33:32.102Z,3.47
2018-12-04T09:36:07.045Z,4.00
2018-12-04T09:38:41.899Z,3.87
2018-12-04T09:41:17.176Z,3.90
2018-12-04T09:43:52.027Z,4.27
2018-12-04T09:46:26.723Z,4.20
2018-12-04T09:49:02.104Z,4.60
2018-12-04T09:51:36.892Z,4.03
2018-12-04T09:54:12.140Z,3.90
2018-12-04T09:56:46.973Z,4.20
2018-12-04T09:59:21.797Z,3.93
2018-12-04T10:01:56.469Z,4.50
2018-12-04T10:04:31.237Z,3.70
2018-12-04T10:07:05.940Z,4.47
2018-12-04T10:09:40.643Z,4.43
2018-12-04T10:12:15.413Z,4.40
2018-12-04T10:14:50.172Z,4.63
2018-12-04T10:17:25.636Z,4.43
2018-12-04T10:20:00.556Z,4.40
2018-12-04T10:22:35.402Z,4.73
2018-12-04T10:25:10.241Z,4.33
2018-12-04T10:27:45.003Z,4.20
2018-12-04T10:30:19.819Z,4.60
2018-12-04T10:32:54.632Z,3.90
2018-12-04T10:35:29.435Z,4.60
2018-12-04T10:38:04.652Z,3.73
2018-12-04T10:40:39.458Z,4.20
2018-12-04T10:43:14.180Z,4.77
2018-12-04T10:45:49.154Z,4.10
2018-12-04T10:48:24.014Z,4.13
2018-12-04T10:50:58.821Z,4.27
2018-12-04T10:53:33.561Z,4.40
2018-12-04T10:56:08.599Z,4.07
2018-12-04T10:58:43.580Z,4.30
2018-12-04T11:01:24.803Z,4.03
2018-12-04T11:03:59.434Z,4.33
2018-12-04T11:06:34.285Z,4.20
2018-12-04T11:09:09.817Z,4.47
2018-12-04T11:11:44.603Z,4.00
2018-12-04T11:14:19.625Z,4.70
2018-12-04T11:16:54.318Z,4.40
2018-12-04T11:19:29.414Z,4.00
2018-12-04T11:22:04.607Z,4.60
2018-12-04T11:24:39.458Z,4.50
2018-12-04T11:27:15.288Z,3.83
2018-12-04T11:29:49.964Z,3.53
2018-12-04T11:32:24.783Z,4.93
2018-12-04T11:34:59.678Z,4.10
2018-12-04T11:37:34.645Z,4.10
2018-12-04T11:40:09.608Z,4.30
2018-12-04T11:42:44.273Z,4.60
2018-12-04T11:45:19.216Z,4.13
2018-12-04T11:47:53.947Z,4.27
2018-12-04T11:50:28.669Z,3.80
2018-12-04T11:53:03.551Z,3.23
2018-12-04T11:55:38.397Z,3.90
2018-12-04T11:58:13.240Z,3.80
2018-12-04T12:00:48.895Z,3.67
2018-12-04T12:03:23.545Z,3.30
2018-12-04T12:05:58.336Z,3.30
2018-12-04T12:08:33.514Z,3.07
2018-12-04T12:11:08.897Z,3.37
2018-12-04T12:13:43.912Z,3.40
2018-12-04T12:16:18.854Z,3.07
2018-12-04T12:18:53.777Z,2.80
2018-12-04T12:21:28.694Z,2.90
2018-12-04T12:24:03.487Z,3.27
2018-12-04T12:26:38.242Z,3.00
2018-12-04T12:29:13.325Z,3.30
2018-12-04T12:31:48.102Z,3.30
2018-12-04T12:34:23.578Z,3.27
2018-12-04T12:36:58.986Z,2.90
2018-12-04T12:39:35.025Z,2.83
2018-12-04T12:42:09.796Z,2.90
2018-12-04T12:44:44.784Z,3.13
2018-12-04T12:47:19.532Z,3.13
2018-12-04T12:49:54.723Z,3.23
2018-12-04T12:52:29.367Z,2.60
2018-12-04T12:55:05.193Z,2.80
2018-12-04T12:57:39.986Z,3.03
2018-12-04T13:00:14.847Z,2.80
2018-12-04T13:02:49.679Z,3.30
2018-12-04T13:05:24.766Z,3.03
2018-12-04T13:07:59.409Z,2.97
2018-12-04T13:10:34.206Z,3.30
2018-12-04T13:13:09.157Z,2.40
2018-12-04T13:15:44.103Z,2.47
2018-12-04T13:18:18.956Z,2.90
2018-12-04T13:20:53.790Z,2.90
2018-12-04T13:23:28.508Z,2.77
2018-12-04T13:26:03.743Z,2.30
2018-12-04T13:28:39.078Z,3.00
2018-12-04T13:31:14.128Z,3.03
2018-12-04T13:33:48.859Z,3.37
2018-12-04T13:36:23.851Z,2.80
2018-12-04T13:38:58.963Z,3.13
2018-12-04T13:41:33.829Z,3.57
2018-12-04T13:44:08.509Z,2.67
2018-12-04T13:46:43.554Z,2.73
2018-12-04T13:49:18.583Z,2.90
2018-12-04T13:51:53.426Z,2.70
2018-12-04T13:54:28.429Z,2.80
2018-12-04T13:57:04.173Z,2.70
2018-12-04T13:59:39.649Z,2.40
2018-12-04T14:02:14.978Z,2.43
2018-12-04T14:04:50.127Z,2.50
2018-12-04T14:07:25.015Z,2.63
2018-12-04T14:10:00.039Z,2.67
2018-12-04T14:12:35.005Z,2.77
2018-12-04T14:15:10.253Z,3.10
2018-12-04T14:17:47.408Z,3.00
2018-12-04T14:20:22.840Z,3.10
2018-12-04T14:22:57.499Z,3.03
2018-12-04T14:25:32.781Z,3.20
2018-12-04T14:28:07.874Z,2.87
2018-12-04T14:30:43.038Z,2.77
2018-12-04T14:33:18.185Z,3.00
2018-12-04T14:35:53.053Z,2.87
2018-12-04T14:38:28.006Z,3.10
2018-12-04T14:41:03.150Z,2.80
2018-12-04T14:43:37.995Z,2.50
2018-12-04T14:46:13.053Z,2.93
2018-12-04T14:48:48.207Z,3.30
2018-12-04T14:51:23.029Z,2.73
2018-12-04T14:53:57.764Z,2.70
2018-12-04T14:56:32.836Z,2.67
2018-12-04T14:59:07.926Z,3.30
2018-12-04T15:01:43.300Z,3.03
2018-12-04T15:04:18.333Z,3.43
2018-12-04T15:06:53.381Z,2.57
2018-12-04T15:09:28.365Z,2.60
2018-12-04T15:12:03.360Z,3.20
2018-12-04T15:14:38.332Z,3.03
2018-12-04T15:17:13.091Z,3.47
2018-12-04T15:19:48.049Z,3.90
2018-12-04T15:22:22.987Z,3.30
2018-12-04T15:25:00.909Z,3.37
2018-12-04T15:27:35.565Z,3.63
2018-12-04T15:30:11.330Z,3.30
2018-12-04T15:32:46.417Z,3.43
2018-12-04T15:35:21.386Z,3.10
2018-12-04T15:37:56.328Z,3.80
2018-12-04T15:40:31.277Z,3.40
2018-12-04T15:43:06.318Z,3.87
2018-12-04T15:45:41.416Z,3.07
2018-12-04T15:48:16.613Z,3.50
2018-12-04T15:50:51.691Z,3.27
2018-12-04T15:53:26.935Z,4.00
2018-12-04T15:56:01.733Z,3.57
2018-12-04T15:58:36.648Z,3.50
2018-12-04T16:01:11.990Z,3.27
2018-12-04T16:03:47.293Z,3.50
2018-12-04T16:06:22.103Z,4.50
2018-12-04T16:08:56.891Z,3.73
2018-12-04T16:11:31.803Z,3.17
2018-12-04T16:14:06.925Z,3.53
2018-12-04T16:16:41.812Z,3.43
2018-12-04T16:19:16.696Z,3.37
2018-12-04T16:21:51.746Z,4.27
2018-12-04T16:24:26.735Z,3.70
2018-12-04T16:27:01.558Z,3.43
2018-12-04T16:29:36.591Z,3.30
2018-12-04T16:32:11.718Z,3.87
2018-12-04T16:34:46.737Z,3.50
2018-12-04T16:37:21.764Z,3.90
2018-12-04T16:39:56.580Z,3.10
2018-12-04T16:42:31.979Z,4.27
2018-12-04T16:45:07.816Z,3.10
2018-12-04T16:47:42.880Z,3.33
2018-12-04T16:50:17.612Z,3.63
2018-12-04T16:52:52.969Z,4.03
2018-12-04T16:55:28.364Z,3.13
2018-12-04T16:58:03.893Z,3.90
2018-12-04T17:00:39.146Z,3.90
2018-12-04T17:03:13.931Z,4.10
2018-12-04T17:05:48.825Z,4.73
2018-12-04T17:08:23.841Z,4.20
2018-12-04T17:10:58.776Z,4.83
2018-12-04T17:13:33.430Z,3.97
2018-12-04T17:16:03.338Z,3.97
2018-12-04T17:18:38.143Z,4.10
2018-12-04T17:21:13.070Z,3.30
2018-12-04T17:23:48.172Z,4.20
2018-12-04T17:26:22.781Z,4.30
2018-12-04T17:28:58.196Z,4.80
2018-12-04T17:31:33.023Z,4.40
2018-12-04T17:34:07.844Z,4.50
2018-12-04T17:36:41.579Z,5.03
2018-12-04T17:39:16.631Z,5.13
2018-12-04T17:41:51.902Z,5.00
2018-12-04T17:44:27.726Z,4.87
2018-12-04T17:47:02.372Z,4.57
2018-12-04T17:49:37.553Z,5.67
2018-12-04T17:52:12.323Z,5.37
2018-12-04T17:54:47.466Z,5.60
2018-12-04T17:57:22.487Z,5.30
2018-12-04T17:59:57.285Z,4.90
2018-12-04T18:02:31.988Z,4.73
2018-12-04T18:05:07.188Z,5.80
2018-12-04T18:07:41.890Z,5.47
2018-12-04T18:10:17.061Z,5.60
2018-12-04T18:12:46.394Z,5.67
2018-12-04T18:15:21.385Z,5.33
2018-12-04T18:17:56.178Z,6.20
2018-12-04T18:20:31.424Z,6.40
2018-12-04T18:23:06.250Z,5.67
2018-12-04T18:25:41.289Z,5.77
2018-12-04T18:28:16.213Z,5.53
2018-12-04T18:30:51.359Z,5.80
2018-12-04T18:33:25.723Z,6.23
2018-12-04T18:36:00.648Z,6.03
2018-12-04T18:38:35.537Z,5.97
2018-12-04T18:41:10.221Z,5.80
2018-12-04T18:43:45.056Z,6.40
2018-12-04T18:46:19.986Z,7.00
2018-12-04T18:48:54.820Z,6.93
2018-12-04T18:51:29.927Z,6.57
2018-12-04T18:54:05.652Z,6.30
2018-12-04T18:56:40.468Z,6.03
2018-12-04T18:59:15.457Z,7.50
2018-12-04T19:01:50.535Z,7.20
2018-12-04T19:04:25.408Z,7.00
2018-12-04T19:07:00.525Z,7.40
2018-12-04T19:09:35.212Z,6.67
2018-12-04T19:12:10.497Z,6.93
2018-12-04T19:14:45.277Z,7.67
2018-12-04T19:17:20.438Z,7.03
2018-12-04T19:19:55.577Z,7.07
2018-12-04T19:22:30.435Z,7.00
2018-12-04T19:25:07.688Z,6.80
2018-12-04T19:27:42.942Z,7.50
2018-12-04T19:30:14.062Z,10.10
2018-12-04T19:32:43.273Z,8.53
2018-12-04T19:35:13.712Z,9.40
2018-12-04T19:37:43.109Z,8.27
2018-12-04T19:40:12.682Z,8.13
2018-12-04T19:42:44.764Z,9.53
2018-12-04T19:45:14.830Z,10.63
2018-12-04T19:47:44.129Z,10.77
2018-12-04T19:50:13.958Z,9.00
2018-12-04T19:52:43.721Z,7.70
2018-12-04T19:55:13.130Z,10.10
2018-12-04T19:57:42.564Z,9.40
2018-12-04T20:00:11.809Z,8.60
2018-12-04T20:02:41.164Z,8.93
2018-12-04T20:05:11.046Z,8.50
2018-12-04T20:07:40.413Z,9.00
2018-12-04T20:10:10.519Z,8.50
2018-12-04T20:12:40.330Z,8.90
2018-12-04T20:15:10.538Z,8.73
2018-12-04T20:17:40.132Z,8.40
2018-12-04T20:20:09.723Z,8.93
2018-12-04T20:22:42.250Z,7.77
2018-12-04T20:25:11.641Z,7.63
2018-12-04T20:27:41.161Z,8.40
2018-12-04T20:30:16.827Z,8.23
2018-12-04T20:32:51.754Z,7.73
2018-12-04T20:35:26.671Z,8.50
2018-12-04T20:38:01.886Z,9.37
2018-12-04T20:40:36.842Z,8.10
2018-12-04T20:43:11.660Z,7.63
2018-12-04T20:45:46.601Z,8.23
2018-12-04T20:48:21.510Z,8.50
2018-12-04T20:50:56.473Z,8.50
2018-12-04T20:53:31.202Z,8.03
2018-12-04T20:56:06.119Z,8.57
2018-12-04T20:58:36.943Z,7.20
2018-12-04T21:01:12.287Z,8.40
2018-12-04T21:03:48.122Z,7.93
2018-12-04T21:06:23.242Z,8.00
2018-12-04T21:08:58.159Z,8.53
2018-12-04T21:11:33.295Z,9.50
2018-12-04T21:14:08.103Z,8.90
2018-12-04T21:16:43.044Z,8.60
2018-12-04T21:19:17.937Z,8.97
2018-12-04T21:21:52.996Z,8.60
2018-12-04T21:24:28.050Z,9.10
2018-12-04T21:27:11.413Z,9.07
2018-12-04T21:29:47.471Z,8.93
2018-12-04T21:32:27.912Z,9.57
2018-12-04T21:35:08.888Z,9.10
2018-12-04T21:37:48.941Z,8.50
2018-12-04T21:40:28.887Z,9.80
2018-12-04T21:43:08.818Z,9.77
2018-12-04T21:45:49.406Z,10.00
2018-12-04T21:48:28.577Z,10.17
2018-12-04T21:51:03.932Z,9.23
2018-12-04T21:53:38.803Z,9.67
2018-12-04T21:56:14.037Z,10.73
2018-12-04T21:58:48.941Z,9.60
2018-12-04T22:01:23.850Z,10.40
2018-12-04T22:03:58.853Z,10.43
2018-12-04T22:06:33.636Z,10.60
2018-12-04T22:09:09.088Z,11.10
2018-12-04T22:11:43.958Z,10.70
2018-12-04T22:14:18.717Z,11.30
2018-12-04T22:16:53.844Z,10.80
2018-12-04T22:19:28.680Z,10.17
2018-12-04T22:22:03.413Z,11.17
2018-12-04T22:24:38.213Z,10.70
2018-12-04T22:27:13.164Z,11.23
2018-12-04T22:29:48.055Z,10.60
2018-12-04T22:32:23.207Z,12.30
2018-12-04T22:34:57.876Z,10.97
2018-12-04T22:37:32.688Z,10.17
2018-12-04T22:40:08.051Z,10.00
2018-12-04T22:42:42.952Z,11.37
2018-12-04T22:45:22.845Z,10.80
2018-12-04T22:47:57.639Z,10.87
2018-12-04T22:50:32.864Z,10.13
2018-12-04T22:53:07.669Z,10.40
2018-12-04T22:55:42.588Z,10.70
2018-12-04T22:58:17.723Z,10.53
2018-12-04T23:00:53.285Z,10.60
2018-12-04T23:03:28.016Z,10.80
2018-12-04T23:06:02.819Z,10.97
2018-12-04T23:08:40.082Z,10.80
2018-12-04T23:11:15.241Z,10.37
2018-12-04T23:13:49.930Z,11.10
2018-12-04T23:16:24.892Z,10.57
2018-12-04T23:18:59.814Z,10.10
2018-12-04T23:21:34.600Z,12.53
2018-12-04T23:24:10.077Z,10.30
2018-12-04T23:26:45.119Z,10.80
2018-12-04T23:29:19.860Z,11.20
2018-12-04T23:31:54.792Z,10.30
2018-12-04T23:34:29.683Z,10.50
2018-12-04T23:37:04.967Z,10.53
2018-12-04T23:39:39.728Z,10.20
2018-12-04T23:42:14.957Z,11.40
2018-12-04T23:44:49.919Z,9.53
2018-12-04T23:47:25.534Z,10.77
2018-12-04T23:50:00.277Z,10.73
2018-12-04T23:52:35.317Z,11.00
2018-12-04T23:55:10.177Z,11.40
2018-12-04T23:57:45.075Z,10.43
